Time;durP1;ratioP1;P1;durP2;ratioP2;P2;SDS_P1;SDS_P2;PMS_P1;PMS_P2;Temp;Humidity;BMP_temperature;BMP_pressure;BME280_temperature;BME280_humidity;BME280_pressure;Samples;Min_cycle;Max_cycle;Signal;HPM_P1;HPM_P2
2022/03/23 00:02:25;;;;;;;81.93;48.58;;;5.50;99.90;;;;;;5012651;28;20050;-84
2022/03/23 00:04:53;;;;;;;90.40;50.20;;;5.40;99.90;;;;;;4996549;28;20041;-80
2022/03/23 00:07:20;;;;;;;84.35;48.15;;;5.70;99.90;;;;;;4980162;28;20040;-79
2022/03/23 00:09:45;;;;;;;90.93;50.65;;;5.30;99.90;;;;;;4995513;28;20049;-79
2022/03/23 00:12:11;;;;;;;87.63;49.88;;;5.40;99.90;;;;;;5029216;28;20034;-79
2022/03/23 00:14:37;;;;;;;87.32;49.28;;;5.80;99.90;;;;;;4995872;28;20042;-80
2022/03/23 00:17:04;;;;;;;75.10;45.25;;;5.20;99.90;;;;;;4995296;28;22253;-80
2022/03/23 00:19:30;;;;;;;88.15;49.97;;;5.20;99.90;;;;;;5010172;28;20089;-79
2022/03/23 00:21:56;;;;;;;86.63;49.10;;;5.10;99.90;;;;;;5011803;28;20447;-82
2022/03/23 00:24:22;;;;;;;85.13;49.75;;;5.10;99.90;;;;;;5011435;28;20140;-83
2022/03/23 00:26:47;;;;;;;82.97;47.72;;;5.10;99.90;;;;;;4997057;28;20124;-83
2022/03/23 00:29:13;;;;;;;81.25;45.75;;;5.20;99.90;;;;;;5027673;28;20400;-83
2022/03/23 00:31:39;;;;;;;88.95;47.85;;;5.00;99.90;;;;;;4963610;28;20554;-82
2022/03/23 00:34:08;;;;;;;75.30;44.53;;;5.60;99.90;;;;;;5010627;28;20050;-82
2022/03/23 00:36:34;;;;;;;81.70;46.65;;;5.00;99.90;;;;;;4996319;28;20062;-83
2022/03/23 00:39:00;;;;;;;79.45;45.13;;;4.90;99.90;;;;;;4977010;28;20042;-84
2022/03/23 00:41:25;;;;;;;76.63;44.78;;;4.90;99.90;;;;;;4962734;28;20042;-84
2022/03/23 00:43:51;;;;;;;75.53;43.13;;;4.80;99.90;;;;;;4994707;28;20041;-84
2022/03/23 00:46:17;;;;;;;73.03;42.92;;;5.20;99.90;;;;;;4995655;28;20472;-84
2022/03/23 00:48:43;;;;;;;79.53;44.58;;;4.80;99.90;;;;;;4960031;28;20519;-84
2022/03/23 00:51:12;;;;;;;77.88;44.90;;;4.80;99.90;;;;;;4992689;28;20042;-84
2022/03/23 00:53:38;;;;;;;78.40;44.80;;;4.80;99.90;;;;;;4978332;28;20484;-84
2022/03/23 00:56:04;;;;;;;79.90;47.30;;;5.20;99.90;;;;;;4980600;28;20392;-91
2022/03/23 00:58:30;;;;;;;71.13;42.03;;;4.80;99.90;;;;;;4996804;28;20030;-91
2022/03/23 01:00:56;;;;;;;69.00;41.25;;;4.80;99.90;;;;;;4996667;28;20052;-91
2022/03/23 01:03:22;;;;;;;67.68;41.35;;;4.70;99.90;;;;;;4996787;28;20392;-91
2022/03/23 01:05:47;;;;;;;63.13;40.35;;;4.70;99.90;;;;;;4994286;28;20045;-91
2022/03/23 01:08:13;;;;;;;68.18;40.90;;;4.70;99.90;;;;;;4981340;28;20046;-90
2022/03/23 01:10:39;;;;;;;73.03;42.92;;;5.20;99.90;;;;;;4973383;28;20034;-90
2022/03/23 01:13:05;;;;;;;73.78;43.67;;;4.70;99.90;;;;;;4997418;28;20046;-84
2022/03/23 01:15:30;;;;;;;68.90;40.97;;;4.70;99.90;;;;;;4988158;28;20045;-83
2022/03/23 01:17:56;;;;;;;74.25;44.45;;;4.60;99.90;;;;;;4962503;28;20055;-83
2022/03/23 01:20:22;;;;;;;85.97;48.33;;;5.10;99.90;;;;;;4995286;28;20484;-83
2022/03/23 01:22:49;;;;;;;78.95;45.70;;;4.60;99.90;;;;;;4976624;28;20046;-83
2022/03/23 01:25:16;;;;;;;81.20;45.90;;;4.60;99.90;;;;;;5011816;28;20116;-84
2022/03/23 01:27:43;;;;;;;83.28;47.60;;;4.60;99.90;;;;;;4979022;28;20046;-83
2022/03/23 01:30:14;;;;;;;68.88;42.30;;;4.60;99.90;;;;;;4979575;28;20050;-90
2022/03/23 01:32:41;;;;;;;69.50;42.70;;;4.50;99.90;;;;;;4984517;28;20057;-90
2022/03/23 01:35:08;;;;;;;67.05;42.13;;;4.50;99.90;;;;;;5011583;28;20411;-90
2022/03/23 01:37:34;;;;;;;74.22;44.72;;;4.50;99.90;;;;;;4996169;28;20042;-90
2022/03/23 01:40:03;;;;;;;82.18;45.78;;;4.10;99.90;;;;;;5012047;28;20044;-90
2022/03/23 01:42:29;;;;;;;71.15;42.55;;;4.50;99.90;;;;;;5027026;28;20366;-90
2022/03/23 01:44:56;;;;;;;70.60;42.42;;;4.40;99.90;;;;;;5011633;28;20041;-82
2022/03/23 01:47:21;;;;;;;76.05;44.47;;;4.30;99.90;;;;;;4995770;28;20046;-82
2022/03/23 01:49:50;;;;;;;74.22;44.10;;;4.60;99.90;;;;;;5010313;28;20037;-82
2022/03/23 01:52:20;;;;;;;67.82;43.78;;;4.30;99.90;;;;;;5011994;28;20469;-82
2022/03/23 01:54:46;;;;;;;76.68;43.90;;;4.30;99.90;;;;;;5010067;28;20492;-82
2022/03/23 01:57:15;;;;;;;70.75;43.78;;;5.30;99.90;;;;;;4992591;28;20041;-82
2022/03/23 01:59:41;;;;;;;70.93;41.72;;;4.20;99.90;;;;;;5010770;28;20046;-82
2022/03/23 02:02:10;;;;;;;69.70;43.15;;;4.20;99.90;;;;;;4995125;28;20407;-79
2022/03/23 02:04:37;;;;;;;73.95;44.45;;;4.60;99.90;;;;;;5011192;28;20172;-79
2022/03/23 02:07:03;;;;;;;79.03;46.10;;;4.40;99.90;;;;;;5011188;28;20045;-79
2022/03/23 02:09:31;;;;;;;77.95;45.17;;;4.20;99.90;;;;;;5027793;28;20087;-79
2022/03/23 02:11:57;;;;;;;67.95;42.17;;;4.10;99.90;;;;;;5011571;28;20049;-79
2022/03/23 02:14:23;;;;;;;83.13;46.83;;;4.10;99.90;;;;;;4967604;28;20046;-79
2022/03/23 02:16:51;;;;;;;78.57;45.38;;;4.10;99.90;;;;;;4992045;28;20481;-79
2022/03/23 02:19:18;;;;;;;84.05;46.88;;;5.00;99.90;;;;;;5009892;28;20038;-79
2022/03/23 02:21:48;;;;;;;79.70;46.28;;;4.10;99.90;;;;;;4993046;28;20472;-79
2022/03/23 02:24:15;;;;;;;78.43;45.00;;;4.10;99.90;;;;;;4972567;28;20038;-79
2022/03/23 02:26:42;;;;;;;93.57;50.20;;;4.00;99.90;;;;;;5026631;28;20064;-79
2022/03/23 02:29:09;;;;;;;80.50;47.10;;;4.00;99.90;;;;;;4993547;28;20173;-79
2022/03/23 02:31:35;;;;;;;94.30;47.08;;;4.00;99.90;;;;;;4992172;28;20042;-82
2022/03/23 02:34:02;;;;;;;89.78;49.47;;;4.40;99.90;;;;;;4992238;28;20054;-79
2022/03/23 02:36:28;;;;;;;81.43;47.35;;;4.00;99.90;;;;;;4993048;28;20040;-83
2022/03/23 02:38:53;;;;;;;80.10;45.75;;;4.20;99.90;;;;;;4960598;28;20038;-84
2022/03/23 02:41:19;;;;;;;84.03;46.58;;;4.30;99.90;;;;;;4973692;28;20128;-84
2022/03/23 02:43:45;;;;;;;85.28;45.33;;;3.90;99.90;;;;;;4977589;28;20034;-84
2022/03/23 02:46:19;;;;;;;87.20;47.28;;;3.90;99.90;;;;;;4994204;28;20037;-84
2022/03/23 02:48:46;;;;;;;73.05;42.05;;;3.80;99.90;;;;;;4961681;28;20132;-84
2022/03/23 02:51:12;;;;;;;81.68;45.15;;;3.90;99.90;;;;;;4993920;28;20373;-89
2022/03/23 03:02:16;;;;;;;78.47;44.08;;;3.70;99.90;;;;;;5008009;28;20049;-90
2022/03/23 03:04:42;;;;;;;71.07;42.17;;;3.70;99.90;;;;;;4993715;28;20126;-90
2022/03/23 03:07:08;;;;;;;75.78;43.42;;;3.60;99.90;;;;;;4993898;28;20120;-91
2022/03/23 03:09:34;;;;;;;72.32;42.78;;;4.60;99.90;;;;;;4992544;28;20478;-82
2022/03/23 03:12:01;;;;;;;66.20;40.88;;;3.50;99.90;;;;;;4988505;28;20532;-83
2022/03/23 03:14:27;;;;;;;66.88;41.33;;;3.90;99.90;;;;;;4976472;28;20038;-82
2022/03/23 03:16:53;;;;;;;60.70;37.63;;;3.50;99.90;;;;;;5008669;28;20038;-82
2022/03/23 03:19:19;;;;;;;67.38;40.80;;;3.40;99.90;;;;;;4976482;28;20395;-82
2022/03/23 03:21:48;;;;;;;67.35;38.85;;;3.40;99.90;;;;;;4992682;28;20129;-82
2022/03/23 03:24:14;;;;;;;66.80;39.92;;;3.40;99.90;;;;;;4993875;28;20345;-82
2022/03/23 03:26:40;;;;;;;65.93;40.63;;;4.20;99.90;;;;;;4976265;28;20041;-79
2022/03/23 03:29:05;;;;;;;66.65;40.80;;;3.30;99.90;;;;;;4974695;28;20046;-79
2022/03/23 03:31:32;;;;;;;65.43;39.20;;;3.30;99.90;;;;;;4974948;28;20088;-80
2022/03/23 03:33:58;;;;;;;70.60;40.75;;;3.80;99.90;;;;;;4990720;28;20081;-80
2022/03/23 03:36:24;;;;;;;69.55;40.50;;;3.30;99.90;;;;;;5008067;28;20073;-79
2022/03/23 03:38:50;;;;;;;64.15;39.50;;;3.30;99.90;;;;;;4992649;28;20057;-80
2022/03/23 03:41:16;;;;;;;64.22;38.85;;;4.20;99.90;;;;;;4993450;28;20125;-79
2022/03/23 03:43:43;;;;;;;72.25;41.95;;;3.20;99.90;;;;;;5010916;28;20041;-80
2022/03/23 03:46:10;;;;;;;75.63;41.30;;;4.00;99.90;;;;;;4976029;28;20484;-79
2022/03/23 03:48:40;;;;;;;70.57;40.45;;;3.90;99.90;;;;;;4990707;28;20558;-80
2022/03/23 03:51:07;;;;;;;68.68;40.80;;;3.20;99.90;;;;;;5010301;28;20038;-80
2022/03/23 03:53:33;;;;;;;74.22;40.65;;;3.20;99.90;;;;;;4994263;28;20085;-80
2022/03/23 03:55:59;;;;;;;66.35;39.88;;;3.10;99.90;;;;;;5007065;28;20168;-79
2022/03/23 03:58:28;;;;;;;61.85;36.42;;;3.70;99.90;;;;;;4970990;28;20124;-82
2022/03/23 04:00:54;;;;;;;68.88;41.05;;;3.10;99.90;;;;;;4991994;28;20038;-82
2022/03/23 04:03:20;;;;;;;60.10;36.03;;;3.10;99.90;;;;;;5009638;28;20506;-82
2022/03/23 04:05:46;;;;;;;63.45;37.60;;;3.00;99.90;;;;;;4992743;28;20034;-82
2022/03/23 04:08:12;;;;;;;61.22;37.08;;;3.00;99.90;;;;;;4994564;28;20041;-82
2022/03/23 04:10:38;;;;;;;56.50;34.92;;;2.90;99.90;;;;;;5010852;28;20041;-82
2022/03/23 04:13:07;;;;;;;64.22;38.03;;;3.00;99.90;;;;;;4980918;28;20104;-82
2022/03/23 04:15:34;;;;;;;72.53;41.35;;;3.00;99.90;;;;;;5028565;28;20492;-79
2022/03/23 04:18:00;;;;;;;65.40;38.00;;;3.30;99.90;;;;;;4996844;28;20100;-79
2022/03/23 04:20:25;;;;;;;66.80;39.67;;;3.00;99.90;;;;;;4995317;28;20038;-79
2022/03/23 04:22:51;;;;;;;67.00;40.20;;;3.00;99.90;;;;;;5009997;28;20033;-79
2022/03/23 04:25:18;;;;;;;73.20;41.70;;;3.80;99.90;;;;;;5013311;28;20041;-79
2022/03/23 04:27:49;;;;;;;72.65;41.58;;;3.10;99.90;;;;;;5011505;28;20037;-80
2022/03/23 04:30:17;;;;;;;66.97;38.65;;;3.10;99.90;;;;;;5013490;28;20427;-80
2022/03/23 04:32:45;;;;;;;70.28;41.10;;;2.30;99.90;;;;;;4980587;28;20038;-79
2022/03/23 04:35:12;;;;;;;67.82;38.30;;;3.00;99.90;;;;;;5014157;28;20081;-79
2022/03/23 04:37:38;;;;;;;70.10;39.80;;;3.90;99.90;;;;;;4996917;28;20472;-79
2022/03/23 04:40:05;;;;;;;79.15;40.55;;;3.00;99.90;;;;;;5010881;28;20030;-79
2022/03/23 04:42:32;;;;;;;61.85;37.67;;;2.90;99.90;;;;;;4980659;28;20136;-79
2022/03/23 04:44:58;;;;;;;118.68;44.08;;;2.90;99.90;;;;;;4980543;28;20046;-79
2022/03/23 04:47:24;;;;;;;72.47;40.08;;;3.30;99.90;;;;;;4993585;28;20046;-79
2022/03/23 04:49:50;;;;;;;72.38;40.67;;;2.90;99.90;;;;;;4995155;28;20045;-79
2022/03/23 04:52:16;;;;;;;66.57;37.95;;;3.40;99.90;;;;;;4991651;28;20101;-79
2022/03/23 04:54:43;;;;;;;69.55;39.70;;;4.00;99.90;;;;;;5011912;28;20041;-79
2022/03/23 04:57:09;;;;;;;68.85;38.67;;;3.50;99.90;;;;;;4992031;28;20104;-79
2022/03/23 04:59:35;;;;;;;77.55;41.45;;;2.80;99.90;;;;;;5009982;28;20496;-79
2022/03/23 05:02:01;;;;;;;73.40;40.85;;;2.80;99.90;;;;;;5008903;28;20091;-79
2022/03/23 05:04:26;;;;;;;79.90;42.20;;;2.70;99.90;;;;;;4993495;28;20034;-79
2022/03/23 05:06:53;;;;;;;75.60;40.47;;;;;;;;;;4995778;28;20036;-90
2022/03/23 05:09:18;;;;;;;70.73;39.43;;;2.80;99.90;;;;;;5010375;28;20038;-90
2022/03/23 05:11:44;;;;;;;66.33;37.10;;;2.80;99.90;;;;;;4980206;28;20562;-90
2022/03/23 05:14:10;;;;;;;69.10;38.90;;;2.80;99.90;;;;;;4994504;28;20045;-90
2022/03/23 05:16:37;;;;;;;73.75;39.50;;;3.70;99.90;;;;;;5011920;28;20107;-90
2022/03/23 05:19:02;;;;;;;71.10;38.67;;;3.10;99.90;;;;;;5011652;28;20154;-90
2022/03/23 05:21:28;;;;;;;70.18;40.20;;;3.10;99.90;;;;;;4995188;28;20484;-84
2022/03/23 05:23:54;;;;;;;80.53;41.85;;;2.70;99.90;;;;;;5010802;28;20437;-84
2022/03/23 05:26:19;;;;;;;78.00;40.92;;;2.70;99.90;;;;;;5011892;28;20030;-84
2022/03/23 05:28:47;;;;;;;78.00;40.15;;;2.70;99.90;;;;;;5012199;28;20042;-83
2022/03/23 05:31:13;;;;;;;61.43;35.90;;;2.70;99.90;;;;;;4995922;28;20034;-84
2022/03/23 05:33:39;;;;;;;56.28;34.20;;;2.80;99.90;;;;;;4995269;28;20191;-84
2022/03/23 05:36:07;;;;;;;64.20;36.08;;;2.70;99.90;;;;;;4995876;28;20041;-84
2022/03/23 05:38:33;;;;;;;67.85;37.67;;;2.60;99.90;;;;;;4995134;28;20037;-82
2022/03/23 05:40:58;;;;;;;73.75;39.90;;;2.60;99.90;;;;;;4970507;28;20052;-82
2022/03/23 05:43:24;;;;;;;76.68;37.33;;;2.60;99.90;;;;;;4979371;28;20046;-82
2022/03/23 05:45:50;;;;;;;65.95;38.95;;;2.60;99.90;;;;;;5008831;28;20046;-82
2022/03/23 05:48:16;;;;;;;76.43;42.55;;;2.70;99.90;;;;;;4994280;28;20038;-82
2022/03/23 05:50:41;;;;;;;68.38;40.08;;;2.70;99.90;;;;;;5011729;28;20357;-82
2022/03/23 05:53:08;;;;;;;85.97;43.03;;;3.30;99.90;;;;;;5012147;28;20072;-82
2022/03/23 05:55:34;;;;;;;82.38;42.90;;;2.80;99.90;;;;;;5011624;28;20092;-84
2022/03/23 05:58:00;;;;;;;104.47;43.03;;;3.40;99.90;;;;;;5011502;28;20034;-84
2022/03/23 06:00:29;;;;;;;76.10;41.63;;;3.00;99.90;;;;;;4987702;28;20038;-84
2022/03/23 06:02:54;;;;;;;88.85;45.50;;;3.10;99.90;;;;;;4978448;28;20065;-84
2022/03/23 06:05:20;;;;;;;90.80;46.53;;;3.20;99.90;;;;;;4996302;28;20484;-84
2022/03/23 06:07:46;;;;;;;95.00;46.55;;;3.30;99.90;;;;;;4994373;28;20033;-84
2022/03/23 06:10:12;;;;;;;80.20;42.97;;;3.40;99.90;;;;;;5008655;28;20034;-84
2022/03/23 06:12:38;;;;;;;72.78;41.65;;;3.40;99.90;;;;;;4994804;28;20072;-82
2022/03/23 06:15:05;;;;;;;68.55;39.83;;;3.50;99.90;;;;;;5023451;28;20041;-82
2022/03/23 06:17:31;;;;;;;76.40;42.72;;;3.60;99.90;;;;;;5025490;28;20447;-82
2022/03/23 06:19:57;;;;;;;70.22;40.75;;;3.70;99.90;;;;;;5007066;28;20108;-82
2022/03/23 06:22:23;;;;;;;69.78;41.30;;;3.80;99.90;;;;;;4992456;28;20128;-82
2022/03/23 06:24:48;;;;;;;73.43;42.92;;;4.00;99.90;;;;;;4992499;28;20038;-82
2022/03/23 06:27:14;;;;;;;71.43;41.30;;;5.00;99.90;;;;;;5002562;28;20050;-82
2022/03/23 06:29:43;;;;;;;66.80;40.55;;;4.50;99.90;;;;;;4990083;28;20034;-87
2022/03/23 06:32:12;;;;;;;64.50;39.65;;;4.90;99.90;;;;;;4998433;28;20054;-88
2022/03/23 06:34:39;;;;;;;63.97;41.47;;;5.40;99.90;;;;;;4977059;28;20096;-89
2022/03/23 06:37:05;;;;;;;63.15;40.55;;;6.00;99.90;;;;;;4993962;28;20492;-89
2022/03/23 06:39:32;;;;;;;66.32;41.40;;;6.60;99.90;;;;;;4993230;28;20096;-89
2022/03/23 06:41:58;;;;;;;64.00;39.45;;;7.10;99.90;;;;;;4994052;28;20075;-89
2022/03/23 06:44:24;;;;;;;59.10;39.00;;;7.70;99.90;;;;;;4994014;28;20038;-89
2022/03/23 06:46:50;;;;;;;50.25;35.22;;;8.20;99.90;;;;;;4974549;28;20036;-80
2022/03/23 06:49:16;;;;;;;50.25;34.25;;;8.70;99.90;;;;;;4992620;28;20467;-80
2022/03/23 06:51:42;;;;;;;56.30;38.88;;;9.20;99.90;;;;;;4990643;28;20041;-80
2022/03/23 06:54:08;;;;;;;52.35;38.00;;;9.70;99.90;;;;;;4992873;28;20167;-80
2022/03/23 06:56:34;;;;;;;51.72;38.22;;;10.30;99.90;;;;;;4976922;28;20065;-80
2022/03/23 06:59:04;;;;;;;53.47;38.05;;;10.70;99.90;;;;;;4991727;28;20137;-80
2022/03/23 07:01:30;;;;;;;50.70;37.20;;;11.20;99.90;;;;;;5004384;28;20048;-80
2022/03/23 07:03:56;;;;;;;55.45;39.90;;;11.70;99.90;;;;;;4988007;28;20034;-80
2022/03/23 07:06:21;;;;;;;51.08;37.08;;;12.10;99.90;;;;;;4973858;28;20374;-80
2022/03/23 07:11:31;;;;;;;45.75;36.30;;;13.00;99.90;;;;;;4975864;28;20129;-80
2022/03/23 07:13:57;;;;;;;49.50;38.50;;;13.50;99.90;;;;;;4986948;28;20125;-80
2022/03/23 07:16:23;;;;;;;49.47;36.47;;;13.90;99.90;;;;;;4992725;28;20082;-80
2022/03/23 07:18:49;;;;;;;49.80;36.95;;;14.20;99.90;;;;;;4978651;28;20065;-89
2022/03/23 07:21:15;;;;;;;51.15;37.40;;;14.60;99.90;;;;;;5009853;28;20045;-91
2022/03/23 07:23:41;;;;;;;48.83;36.08;;;15.00;99.90;;;;;;4994641;28;20491;-91
2022/03/23 07:26:08;;;;;;;50.20;36.60;;;15.30;99.90;;;;;;4993672;28;20077;-90
2022/03/23 07:28:34;;;;;;;46.47;36.72;;;15.70;99.90;;;;;;4961811;28;20117;-90
2022/03/23 07:31:00;;;;;;;44.00;35.97;;;16.10;99.90;;;;;;4980016;28;20049;-89
2022/03/23 07:33:26;;;;;;;44.25;35.33;;;16.20;99.90;;;;;;4978446;23;20050;-83
2022/03/23 07:35:52;;;;;;;43.85;34.00;;;16.60;99.90;;;;;;4956080;28;20058;-83
2022/03/23 07:38:18;;;;;;;44.38;34.28;;;17.10;99.90;;;;;;4957125;28;20046;-84
2022/03/23 07:40:44;;;;;;;42.42;33.92;;;17.50;99.90;;;;;;4971942;28;20113;-84
2022/03/23 07:43:10;;;;;;;41.67;33.15;;;17.80;99.90;;;;;;4972561;28;20445;-83
2022/03/23 07:45:36;;;;;;;40.17;32.95;;;18.20;99.90;;;;;;4976608;28;20041;-83
2022/03/23 07:48:02;;;;;;;38.50;33.10;;;18.60;99.90;;;;;;4976190;28;20034;-83
2022/03/23 07:50:28;;;;;;;40.65;33.65;;;19.00;99.90;;;;;;4957257;28;20061;-84
2022/03/23 07:52:54;;;;;;;44.15;34.13;;;19.30;99.90;;;;;;4974864;28;20037;-83
2022/03/23 07:55:20;;;;;;;38.03;32.25;;;19.20;99.30;;;;;;4961877;28;20061;-84
2022/03/23 07:57:46;;;;;;;43.05;34.00;;;19.10;97.80;;;;;;4977385;28;20038;-83
2022/03/23 08:00:13;;;;;;;38.83;32.22;;;19.80;99.10;;;;;;4960314;28;20089;-84
2022/03/23 08:02:42;;;;;;;41.83;32.80;;;20.00;96.20;;;;;;4978075;28;20122;-84
2022/03/23 08:05:09;;;;;;;43.40;33.47;;;19.90;93.40;;;;;;4961930;28;20053;-84
2022/03/23 08:07:35;;;;;;;35.67;30.95;;;20.50;93.10;;;;;;4977477;28;20045;-85
2022/03/23 08:10:01;;;;;;;67.47;31.73;;;21.10;92.40;;;;;;4942950;28;20058;-90
2022/03/23 08:12:26;;;;;;;36.00;30.27;;;21.70;92.20;;;;;;4943962;28;20034;-93
2022/03/23 08:14:53;;;;;;;36.53;30.33;;;22.20;90.10;;;;;;4960101;28;20488;-90
2022/03/23 08:17:19;;;;;;;35.40;30.40;;;22.50;89.90;;;;;;4958608;28;20054;-89
2022/03/23 08:20:32;;;;;;;38.70;31.30;;;22.80;86.50;;;;;;4944035;28;20043;-90
2022/03/23 08:22:37;;;;;;;39.17;30.52;;;23.30;82.60;;;;;;4961277;28;20057;-90
2022/03/23 08:25:03;;;;;;;37.05;31.20;;;23.60;79.60;;;;;;4958241;28;20046;-84
2022/03/23 08:27:32;;;;;;;35.00;30.60;;;23.80;78.50;;;;;;4960314;28;20041;-84
2022/03/23 08:29:58;;;;;;;36.08;30.30;;;24.00;77.30;;;;;;4974510;28;20135;-84
2022/03/23 08:32:26;;;;;;;35.17;29.23;;;24.30;76.70;;;;;;4959110;28;20636;-84
2022/03/23 08:34:52;;;;;;;37.20;28.77;;;24.40;75.40;;;;;;4959799;28;20050;-83
2022/03/23 08:37:17;;;;;;;35.95;28.55;;;24.70;74.30;;;;;;4958661;28;20041;-84
2022/03/23 08:39:43;;;;;;;31.50;27.35;;;25.00;71.30;;;;;;4976015;28;20168;-84
2022/03/23 08:42:09;;;;;;;35.25;29.60;;;25.00;66.90;;;;;;4975189;28;20046;-80
2022/03/23 08:44:35;;;;;;;34.05;28.23;;;25.20;68.60;;;;;;4976130;28;20121;-80
2022/03/23 08:47:01;;;;;;;30.00;25.40;;;25.40;67.90;;;;;;4975787;28;20058;-80
2022/03/23 08:49:26;;;;;;;30.13;26.63;;;25.70;67.40;;;;;;4975356;28;20114;-80
2022/03/23 08:51:52;;;;;;;34.60;27.20;;;25.90;66.10;;;;;;4961486;28;20034;-80
2022/03/23 08:54:18;;;;;;;28.63;25.38;;;26.20;64.70;;;;;;4958804;28;20030;-80
2022/03/23 08:56:43;;;;;;;30.20;26.88;;;26.30;64.40;;;;;;4975543;28;20133;-81
2022/03/23 08:59:09;;;;;;;31.65;27.02;;;26.10;61.80;;;;;;4976283;28;20034;-90
2022/03/23 09:01:35;;;;;;;29.95;26.65;;;26.30;60.40;;;;;;4960240;28;20034;-90
2022/03/23 09:04:04;;;;;;;29.05;25.95;;;26.60;60.40;;;;;;4976507;28;20125;-90
2022/03/23 09:06:30;;;;;;;31.17;27.80;;;26.90;59.40;;;;;;4978920;28;20097;-90
2022/03/23 09:08:55;;;;;;;32.47;26.33;;;27.20;59.00;;;;;;4976654;28;20066;-90
2022/03/23 09:11:22;;;;;;;28.73;25.02;;;27.50;58.80;;;;;;4977896;28;20084;-91
2022/03/23 09:13:49;;;;;;;28.85;25.73;;;27.60;55.20;;;;;;4960779;28;20050;-90
2022/03/23 09:16:15;;;;;;;29.50;26.17;;;27.60;56.10;;;;;;4959294;28;20431;-83
2022/03/23 09:18:41;;;;;;;31.05;27.75;;;27.60;53.40;;;;;;4973332;28;20101;-84
2022/03/23 09:21:07;;;;;;;29.52;23.90;;;26.90;53.10;;;;;;4970130;28;20047;-84
2022/03/23 09:23:36;;;;;;;27.13;24.23;;;26.80;53.00;;;;;;4977236;28;20035;-83
2022/03/23 09:26:03;;;;;;;26.75;23.90;;;27.50;53.60;;;;;;4992453;28;20053;-84
2022/03/23 09:28:29;;;;;;;28.55;23.92;;;27.80;52.70;;;;;;4975569;28;21589;-84
2022/03/23 09:30:55;;;;;;;29.55;26.35;;;28.40;52.20;;;;;;4958950;28;20038;-83
2022/03/23 09:33:21;;;;;;;27.95;24.27;;;27.90;50.90;;;;;;4972985;28;20498;-84
2022/03/23 09:35:46;;;;;;;27.83;24.77;;;28.60;51.50;;;;;;4942177;28;20103;-84
2022/03/23 09:38:13;;;;;;;27.05;24.13;;;28.70;49.40;;;;;;4958265;28;20042;-84
2022/03/23 09:40:39;;;;;;;26.15;23.35;;;28.90;49.20;;;;;;4975023;28;20047;-84
2022/03/23 09:43:11;;;;;;;26.98;23.73;;;29.50;48.80;;;;;;4974191;28;20035;-84
2022/03/23 09:48:11;;;;;;;25.55;22.88;;;29.70;46.60;;;;;;4973588;28;20041;-84
2022/03/23 09:50:42;;;;;;;26.58;23.65;;;29.70;46.00;;;;;;4958996;28;20043;-84
2022/03/23 09:53:08;;;;;;;28.40;24.30;;;29.40;45.60;;;;;;4958927;28;20038;-84
2022/03/23 09:55:34;;;;;;;25.95;23.15;;;29.60;44.50;;;;;;4976447;28;20034;-84
2022/03/23 09:58:02;;;;;;;29.08;22.30;;;29.40;44.80;;;;;;4970902;28;20101;-85
2022/03/23 10:00:34;;;;;;;28.98;23.58;;;29.80;43.10;;;;;;4972719;28;20053;-84
2022/03/23 10:03:09;;;;;;;26.33;23.17;;;29.60;43.60;;;;;;4971134;28;20057;-85
2022/03/23 10:06:18;;;;;;;25.52;22.77;;;29.80;43.80;;;;;;4953578;28;20039;-84
2022/03/23 10:09:12;;;;;;;24.45;21.38;;;29.50;42.40;;;;;;4957589;28;20085;-84
2022/03/23 10:12:15;;;;;;;29.45;23.13;;;30.10;42.80;;;;;;4973756;28;20042;-84
2022/03/23 10:15:19;;;;;;;25.70;21.75;;;30.50;42.00;;;;;;4953910;28;20050;-84
2022/03/23 10:18:12;;;;;;;23.77;21.27;;;30.60;42.40;;;;;;4974533;28;20061;-84
2022/03/23 10:20:38;;;;;;;23.27;20.88;;;31.20;41.30;;;;;;4973552;28;20397;-84
2022/03/23 10:23:05;;;;;;;23.30;20.17;;;31.40;41.90;;;;;;4974241;28;20053;-84
2022/03/23 10:25:31;;;;;;;27.60;21.40;;;31.00;41.40;;;;;;4973677;28;20070;-83
2022/03/23 10:27:58;;;;;;;22.80;20.50;;;30.70;40.30;;;;;;4972518;28;20081;-84
2022/03/23 10:30:38;;;;;;;25.08;20.95;;;30.70;40.00;;;;;;4955017;28;20433;-84
2022/03/23 10:33:14;;;;;;;22.63;20.23;;;30.80;38.80;;;;;;4987696;28;20138;-84
2022/03/23 10:35:40;;;;;;;23.45;21.13;;;30.90;40.40;;;;;;4973221;28;20030;-84
2022/03/23 10:38:14;;;;;;;24.67;22.08;;;31.50;41.60;;;;;;4941258;28;20041;-84
2022/03/23 10:40:41;;;;;;;24.83;19.27;;;31.30;38.30;;;;;;4973701;28;20069;-84
2022/03/23 10:43:19;;;;;;;23.10;20.33;;;31.30;41.30;;;;;;4956417;28;20042;-84
2022/03/23 10:45:46;;;;;;;25.70;21.08;;;32.10;40.50;;;;;;4973137;28;20477;-84
2022/03/23 10:48:19;;;;;;;23.92;20.10;;;32.50;40.50;;;;;;4970915;28;20085;-84
2022/03/23 10:50:54;;;;;;;22.42;20.23;;;32.50;39.50;;;;;;4974450;28;20043;-85
2022/03/23 10:53:41;;;;;;;22.98;20.35;;;32.10;40.40;;;;;;4956051;28;20049;-84
2022/03/23 10:56:08;;;;;;;23.23;20.65;;;32.60;38.70;;;;;;4973432;28;20050;-90
2022/03/23 10:58:35;;;;;;;24.65;21.95;;;32.80;39.60;;;;;;4972102;28;20070;-90
2022/03/23 11:01:05;;;;;;;23.80;18.27;;;32.20;40.20;;;;;;4971730;28;20045;-89
2022/03/23 11:03:42;;;;;;;20.17;17.77;;;31.30;39.10;;;;;;4970286;28;20556;-91
2022/03/23 11:06:13;;;;;;;19.13;16.92;;;31.20;37.60;;;;;;4958260;28;20506;-89
2022/03/23 11:08:39;;;;;;;22.05;15.07;;;31.60;38.30;;;;;;4971821;28;20050;-89
2022/03/23 11:16:52;;;;;;;20.30;14.93;;;31.50;35.80;;;;;;4973239;28;20042;-80
2022/03/23 11:19:20;;;;;;;19.45;13.25;;;31.30;36.40;;;;;;4956099;28;20401;-80
2022/03/23 11:22:17;;;;;;;22.67;13.35;;;31.90;36.60;;;;;;4962125;28;20516;-81
2022/03/23 11:24:46;;;;;;;18.83;13.02;;;31.50;36.60;;;;;;4960778;28;20081;-81
2022/03/23 11:27:18;;;;;;;22.95;15.07;;;31.80;37.00;;;;;;4978421;28;20122;-82
2022/03/23 11:29:49;;;;;;;21.38;15.90;;;32.20;37.20;;;;;;4976489;28;20125;-92
2022/03/23 11:32:18;;;;;;;25.38;16.42;;;32.30;36.80;;;;;;4978412;28;20154;-92
2022/03/23 11:34:52;;;;;;;23.35;14.70;;;32.70;37.80;;;;;;4979298;28;20058;-92
2022/03/23 11:37:20;;;;;;;20.27;15.60;;;32.90;38.30;;;;;;4976600;28;20042;-93
2022/03/23 11:39:46;;;;;;;19.83;14.75;;;33.40;37.90;;;;;;4976195;28;20142;-93
2022/03/23 11:42:14;;;;;;;22.83;15.02;;;33.50;37.50;;;;;;4991012;28;20126;-92
2022/03/23 11:44:41;;;;;;;21.70;13.13;;;32.90;36.50;;;;;;4977994;28;20042;-86
2022/03/23 11:47:47;;;;;;;22.15;14.63;;;32.60;36.30;;;;;;4976641;28;20053;-86
2022/03/23 11:50:50;;;;;;;22.08;13.85;;;32.00;35.80;;;;;;4927052;28;20038;-86
2022/03/23 11:53:58;;;;;;;21.90;14.07;;;32.50;37.00;;;;;;4961157;28;20042;-86
2022/03/23 11:56:33;;;;;;;21.52;12.18;;;32.60;36.30;;;;;;4965986;28;20054;-85
2022/03/23 11:59:29;;;;;;;18.58;10.20;;;32.60;36.20;;;;;;4975785;28;20129;-85
2022/03/23 12:01:57;;;;;;;18.35;10.60;;;32.90;36.10;;;;;;4972960;28;20031;-82
2022/03/23 12:04:29;;;;;;;21.88;10.00;;;33.10;37.10;;;;;;4969365;28;20045;-82
2022/03/23 12:07:04;;;;;;;19.92;12.15;;;33.30;37.00;;;;;;4978151;28;20038;-82
2022/03/23 12:09:29;;;;;;;18.25;11.45;;;33.40;37.20;;;;;;4971915;28;20069;-80
2022/03/23 12:11:56;;;;;;;16.60;10.88;;;33.30;36.50;;;;;;4975703;28;20509;-81
2022/03/23 12:14:40;;;;;;;22.95;12.60;;;33.40;36.50;;;;;;4975299;28;20050;-81
2022/03/23 12:17:07;;;;;;;18.83;12.60;;;32.70;35.80;;;;;;4941099;28;20110;-81
2022/03/23 12:19:53;;;;;;;17.13;13.23;;;32.30;36.70;;;;;;4975283;28;20400;-81
2022/03/23 12:22:35;;;;;;;16.95;12.73;;;32.70;36.70;;;;;;4957763;28;20046;-81
2022/03/23 12:25:14;;;;;;;19.17;13.20;;;32.30;37.00;;;;;;4971942;28;20527;-80
2022/03/23 12:27:56;;;;;;;18.20;13.38;;;32.20;36.60;;;;;;4975559;28;20034;-81
2022/03/23 12:30:24;;;;;;;20.10;14.27;;;32.30;37.00;;;;;;4956897;28;20130;-81
2022/03/23 12:32:50;;;;;;;21.85;14.20;;;31.40;35.60;;;;;;4972536;28;20430;-81
2022/03/23 12:35:32;;;;;;;20.10;14.25;;;30.50;37.00;;;;;;4956360;28;20074;-90
2022/03/23 12:38:02;;;;;;;27.75;14.23;;;29.30;37.10;;;;;;4970955;28;20047;-89
2022/03/23 12:40:42;;;;;;;24.17;13.82;;;29.40;37.80;;;;;;4955682;28;20046;-90
2022/03/23 12:43:08;;;;;;;20.67;13.32;;;30.50;37.50;;;;;;4955916;28;20043;-90
2022/03/23 12:45:39;;;;;;;20.75;13.25;;;31.20;38.30;;;;;;4987719;28;20061;-89
2022/03/23 12:59:20;;;;;;;17.80;7.82;;;31.60;37.60;;;;;;4971769;28;20047;-80
2022/03/23 13:01:53;;;;;;;15.50;10.75;;;30.80;37.60;;;;;;4953525;28;20046;-80
2022/03/23 13:04:45;;;;;;;18.70;9.80;;;30.30;37.50;;;;;;4956189;28;20490;-80
2022/03/23 13:07:29;;;;;;;14.60;8.50;;;30.40;38.20;;;;;;4956865;28;20045;-80
2022/03/23 13:10:14;;;;;;;16.90;8.65;;;30.60;37.80;;;;;;4971743;28;20038;-83
2022/03/23 13:12:41;;;;;;;18.98;9.52;;;30.60;37.50;;;;;;4969989;28;20622;-84